sensor_id;sensor_type;location;lat;lon;timestamp;pressure;altitude;pressure_sealevel;temperature;humidity
65760;BME280;52496;51.082;5.066;2022-10-31T00:00:51;101979.91;;;11.91;100.00
65760;BME280;52496;51.082;5.066;2022-10-31T00:03:22;101968.16;;;11.92;100.00
65760;BME280;52496;51.082;5.066;2022-10-31T00:05:53;101972.53;;;11.93;100.00
65760;BME280;52496;51.082;5.066;2022-10-31T00:08:24;101967.84;;;11.96;100.00
65760;BME280;52496;51.082;5.066;2022-10-31T00:10:54;101963.16;;;11.98;100.00
65760;BME280;52496;51.082;5.066;2022-10-31T00:13:24;101953.13;;;12.00;100.00
65760;BME280;52496;51.082;5.066;2022-10-31T00:15:55;101951.25;;;12.00;100.00
65760;BME280;52496;51.082;5.066;2022-10-31T00:18:26;101954.78;;;12.01;100.00
65760;BME280;52496;51.082;5.066;2022-10-31T00:21:02;101957.31;;;12.02;100.00
65760;BME280;52496;51.082;5.066;2022-10-31T00:23:34;101957.13;;;12.04;100.00
65760;BME280;52496;51.082;5.066;2022-10-31T00:26:05;101959.66;;;12.05;100.00
65760;BME280;52496;51.082;5.066;2022-10-31T00:28:37;101953.09;;;12.08;100.00
65760;BME280;52496;51.082;5.066;2022-10-31T00:31:09;101946.91;;;12.07;100.00
65760;BME280;52496;51.082;5.066;2022-10-31T00:33:40;101953.09;;;12.08;100.00
65760;BME280;52496;51.082;5.066;2022-10-31T00:36:16;101966.34;;;12.09;100.00
65760;BME280;52496;51.082;5.066;2022-10-31T00:38:47;101966.34;;;12.09;100.00
65760;BME280;52496;51.082;5.066;2022-10-31T00:41:18;101961.81;;;12.10;100.00
65760;BME280;52496;51.082;5.066;2022-10-31T00:43:49;101968.34;;;12.07;100.00
65760;BME280;52496;51.082;5.066;2022-10-31T00:46:19;101958.78;;;12.05;100.00
65760;BME280;52496;51.082;5.066;2022-10-31T00:48:50;101950.09;;;12.03;100.00
65760;BME280;52496;51.082;5.066;2022-10-31T00:51:20;101944.25;;;11.99;100.00
65760;BME280;52496;51.082;5.066;2022-10-31T00:53:51;101947.25;;;11.96;100.00
65760;BME280;52496;51.082;5.066;2022-10-31T00:56:22;101946.06;;;11.90;100.00
65760;BME280;52496;51.082;5.066;2022-10-31T00:58:53;101948.41;;;11.85;100.00
65760;BME280;52496;51.082;5.066;2022-10-31T01:01:23;101944.50;;;11.80;100.00
65760;BME280;52496;51.082;5.066;2022-10-31T01:03:54;101949.69;;;11.73;100.00
65760;BME280;52496;51.082;5.066;2022-10-31T01:06:24;101952.00;;;11.68;100.00
65760;BME280;52496;51.082;5.066;2022-10-31T01:08:55;101942.63;;;11.64;100.00
65760;BME280;52496;51.082;5.066;2022-10-31T01:11:25;101937.09;;;11.57;100.00
65760;BME280;52496;51.082;5.066;2022-10-31T01:13:56;101949.13;;;11.53;100.00
65760;BME280;52496;51.082;5.066;2022-10-31T01:16:27;101951.31;;;11.49;100.00
65760;BME280;52496;51.082;5.066;2022-10-31T01:18:59;101939.25;;;11.45;100.00
65760;BME280;52496;51.082;5.066;2022-10-31T01:21:30;101948.44;;;11.43;100.00
65760;BME280;52496;51.082;5.066;2022-10-31T01:24:01;101947.25;;;11.37;100.00
65760;BME280;52496;51.082;5.066;2022-10-31T01:26:32;101953.94;;;11.33;100.00
65760;BME280;52496;51.082;5.066;2022-10-31T01:29:06;101956.13;;;11.30;100.00
65760;BME280;52496;51.082;5.066;2022-10-31T01:31:38;101951.56;;;11.22;100.00
65760;BME280;52496;51.082;5.066;2022-10-31T01:34:16;101953.88;;;11.17;100.00
65760;BME280;52496;51.082;5.066;2022-10-31T01:36:46;101965.75;;;11.14;100.00
65760;BME280;52496;51.082;5.066;2022-10-31T01:39:21;101960.72;;;11.11;100.00
65760;BME280;52496;51.082;5.066;2022-10-31T01:41:53;101960.19;;;11.08;100.00
65760;BME280;52496;51.082;5.066;2022-10-31T01:47:13;101966.19;;;11.01;100.00
65760;BME280;52496;51.082;5.066;2022-10-31T01:49:51;101957.50;;;10.99;100.00
65760;BME280;52496;51.082;5.066;2022-10-31T01:55:09;101952.44;;;10.96;100.00
65760;BME280;52496;51.082;5.066;2022-10-31T01:57:45;101950.75;;;10.95;100.00
65760;BME280;52496;51.082;5.066;2022-10-31T02:00:19;101951.06;;;10.92;100.00
65760;BME280;52496;51.082;5.066;2022-10-31T02:02:50;101947.75;;;10.90;100.00
65760;BME280;52496;51.082;5.066;2022-10-31T02:05:26;101947.03;;;10.88;100.00
65760;BME280;52496;51.082;5.066;2022-10-31T02:08:14;101947.22;;;10.87;100.00
65760;BME280;52496;51.082;5.066;2022-10-31T02:10:47;101943.03;;;10.84;100.00
65760;BME280;52496;51.082;5.066;2022-10-31T02:13:19;101939.66;;;10.82;100.00
65760;BME280;52496;51.082;5.066;2022-10-31T02:15:53;101934.31;;;10.82;100.00
65760;BME280;52496;51.082;5.066;2022-10-31T02:18:27;101938.00;;;10.81;100.00
65760;BME280;52496;51.082;5.066;2022-10-31T02:29:49;101935.31;;;10.81;100.00
65760;BME280;52496;51.082;5.066;2022-10-31T02:32:37;101932.63;;;10.81;100.00
65760;BME280;52496;51.082;5.066;2022-10-31T02:35:14;101933.47;;;10.82;100.00
65760;BME280;52496;51.082;5.066;2022-10-31T02:46:13;101923.09;;;10.78;100.00
65760;BME280;52496;51.082;5.066;2022-10-31T02:48:46;101923.41;;;10.75;100.00
65760;BME280;52496;51.082;5.066;2022-10-31T02:51:18;101923.53;;;10.74;100.00
65760;BME280;52496;51.082;5.066;2022-10-31T02:53:49;101921.88;;;10.73;100.00
65760;BME280;52496;51.082;5.066;2022-10-31T02:56:21;101917.53;;;10.72;100.00
65760;BME280;52496;51.082;5.066;2022-10-31T02:58:58;101920.34;;;10.70;100.00
65760;BME280;52496;51.082;5.066;2022-10-31T03:10:09;101905.81;;;10.73;100.00
65760;BME280;52496;51.082;5.066;2022-10-31T03:12:47;101897.66;;;10.74;100.00
65760;BME280;52496;51.082;5.066;2022-10-31T03:15:22;101900.84;;;10.78;100.00
65760;BME280;52496;51.082;5.066;2022-10-31T03:20:32;101899.38;;;10.84;100.00
65760;BME280;52496;51.082;5.066;2022-10-31T03:23:08;101897.34;;;10.86;100.00
65760;BME280;52496;51.082;5.066;2022-10-31T03:25:41;101892.84;;;10.86;100.00
65760;BME280;52496;51.082;5.066;2022-10-31T03:28:15;101893.00;;;10.85;100.00
65760;BME280;52496;51.082;5.066;2022-10-31T03:30:48;101910.91;;;10.84;100.00
65760;BME280;52496;51.082;5.066;2022-10-31T03:33:26;101903.88;;;10.83;100.00
65760;BME280;52496;51.082;5.066;2022-10-31T03:36:01;101902.19;;;10.82;100.00
65760;BME280;52496;51.082;5.066;2022-10-31T03:38:35;101902.19;;;10.82;100.00
65760;BME280;52496;51.082;5.066;2022-10-31T03:41:09;101897.53;;;10.84;100.00
65760;BME280;52496;51.082;5.066;2022-10-31T03:43:45;101899.38;;;10.84;100.00
65760;BME280;52496;51.082;5.066;2022-10-31T03:46:18;101892.19;;;10.84;100.00
65760;BME280;52496;51.082;5.066;2022-10-31T03:48:48;101898.19;;;10.86;100.00
65760;BME280;52496;51.082;5.066;2022-10-31T03:51:52;101901.56;;;10.88;100.00
65760;BME280;52496;51.082;5.066;2022-10-31T03:57:00;101895.03;;;10.91;100.00
65760;BME280;52496;51.082;5.066;2022-10-31T03:59:39;101894.22;;;10.90;100.00
65760;BME280;52496;51.082;5.066;2022-10-31T04:02:15;101902.25;;;10.90;100.00
65760;BME280;52496;51.082;5.066;2022-10-31T04:04:47;101901.22;;;10.91;100.00
65760;BME280;52496;51.082;5.066;2022-10-31T04:07:21;101900.91;;;10.94;100.00
65760;BME280;52496;51.082;5.066;2022-10-31T04:09:55;101908.47;;;10.99;100.00
65760;BME280;52496;51.082;5.066;2022-10-31T04:12:28;101904.28;;;11.05;100.00
65760;BME280;52496;51.082;5.066;2022-10-31T04:15:01;101906.31;;;11.11;100.00
65760;BME280;52496;51.082;5.066;2022-10-31T04:17:36;101904.19;;;11.14;100.00
65760;BME280;52496;51.082;5.066;2022-10-31T04:20:08;101904.50;;;11.19;100.00
65760;BME280;52496;51.082;5.066;2022-10-31T04:22:39;101908.56;;;11.23;100.00
65760;BME280;52496;51.082;5.066;2022-10-31T04:25:09;101895.69;;;11.27;100.00
65760;BME280;52496;51.082;5.066;2022-10-31T04:27:40;101906.22;;;11.29;100.00
65760;BME280;52496;51.082;5.066;2022-10-31T04:30:11;101904.41;;;11.29;100.00
65760;BME280;52496;51.082;5.066;2022-10-31T04:32:42;101896.38;;;11.29;100.00
65760;BME280;52496;51.082;5.066;2022-10-31T04:35:12;101897.34;;;11.28;100.00
65760;BME280;52496;51.082;5.066;2022-10-31T04:37:43;101899.19;;;11.28;100.00
65760;BME280;52496;51.082;5.066;2022-10-31T04:40:13;101892.31;;;11.25;100.00
65760;BME280;52496;51.082;5.066;2022-10-31T04:42:44;101892.63;;;11.22;100.00
65760;BME280;52496;51.082;5.066;2022-10-31T04:45:14;101888.28;;;11.21;100.00
65760;BME280;52496;51.082;5.066;2022-10-31T04:47:45;101891.31;;;11.18;100.00
65760;BME280;52496;51.082;5.066;2022-10-31T04:50:16;101890.78;;;11.14;100.00
65760;BME280;52496;51.082;5.066;2022-10-31T04:52:47;101905.47;;;11.10;100.00
65760;BME280;52496;51.082;5.066;2022-10-31T04:55:17;101904.97;;;11.07;100.00
65760;BME280;52496;51.082;5.066;2022-10-31T04:57:49;101899.94;;;11.03;100.00
65760;BME280;52496;51.082;5.066;2022-10-31T05:00:21;101908.97;;;11.02;100.00
65760;BME280;52496;51.082;5.066;2022-10-31T05:02:54;101899.25;;;11.01;100.00
65760;BME280;52496;51.082;5.066;2022-10-31T05:05:29;101900.25;;;11.00;100.00
65760;BME280;52496;51.082;5.066;2022-10-31T05:08:00;101907.59;;;10.98;100.00
65760;BME280;52496;51.082;5.066;2022-10-31T05:10:32;101899.75;;;10.97;100.00
65760;BME280;52496;51.082;5.066;2022-10-31T05:13:03;101894.53;;;10.95;100.00
65760;BME280;52496;51.082;5.066;2022-10-31T05:15:34;101899.06;;;10.95;100.00
65760;BME280;52496;51.082;5.066;2022-10-31T05:18:05;101891.03;;;10.95;100.00
65760;BME280;52496;51.082;5.066;2022-10-31T05:20:35;101893.56;;;10.96;100.00
65760;BME280;52496;51.082;5.066;2022-10-31T05:23:06;101883.84;;;10.95;100.00
65760;BME280;52496;51.082;5.066;2022-10-31T05:25:36;101879.88;;;10.99;100.00
65760;BME280;52496;51.082;5.066;2022-10-31T05:28:07;101879.69;;;11.01;100.00
65760;BME280;52496;51.082;5.066;2022-10-31T05:30:37;101876.84;;;11.02;100.00
65760;BME280;52496;51.082;5.066;2022-10-31T05:33:08;101887.56;;;11.02;100.00
65760;BME280;52496;51.082;5.066;2022-10-31T05:35:38;101887.91;;;10.99;100.00
65760;BME280;52496;51.082;5.066;2022-10-31T05:38:09;101878.84;;;11.00;100.00
65760;BME280;52496;51.082;5.066;2022-10-31T05:40:39;101878.84;;;11.00;100.00
65760;BME280;52496;51.082;5.066;2022-10-31T05:43:09;101877.69;;;11.03;100.00
65760;BME280;52496;51.082;5.066;2022-10-31T05:45:40;101870.50;;;11.03;100.00
65760;BME280;52496;51.082;5.066;2022-10-31T05:48:11;101869.50;;;11.05;100.00
65760;BME280;52496;51.082;5.066;2022-10-31T05:50:41;101867.00;;;11.03;100.00
65760;BME280;52496;51.082;5.066;2022-10-31T05:53:12;101871.50;;;11.02;100.00
65760;BME280;52496;51.082;5.066;2022-10-31T05:55:43;101867.81;;;11.03;100.00
65760;BME280;52496;51.082;5.066;2022-10-31T05:58:13;101860.47;;;11.06;100.00
65760;BME280;52496;51.082;5.066;2022-10-31T06:00:44;101867.50;;;11.07;100.00
65760;BME280;52496;51.082;5.066;2022-10-31T06:03:14;101874.50;;;11.08;100.00
65760;BME280;52496;51.082;5.066;2022-10-31T06:05:45;101867.50;;;11.07;100.00
65760;BME280;52496;51.082;5.066;2022-10-31T06:08:15;101862.31;;;11.05;100.00
65760;BME280;52496;51.082;5.066;2022-10-31T06:10:45;101868.00;;;11.02;100.00
65760;BME280;52496;51.082;5.066;2022-10-31T06:13:16;101872.34;;;11.03;100.00
65760;BME280;52496;51.082;5.066;2022-10-31T06:15:46;101862.78;;;11.00;100.00
65760;BME280;52496;51.082;5.066;2022-10-31T06:18:17;101869.16;;;10.99;100.00
65760;BME280;52496;51.082;5.066;2022-10-31T06:20:47;101862.09;;;10.98;100.00
65760;BME280;52496;51.082;5.066;2022-10-31T06:23:18;101865.97;;;10.96;100.00
65760;BME280;52496;51.082;5.066;2022-10-31T06:25:51;101875.66;;;10.97;100.00
65760;BME280;52496;51.082;5.066;2022-10-31T06:28:22;101871.31;;;10.96;100.00
65760;BME280;52496;51.082;5.066;2022-10-31T06:30:52;101871.31;;;10.96;100.00
65760;BME280;52496;51.082;5.066;2022-10-31T06:33:23;101866.81;;;10.96;100.00
65760;BME280;52496;51.082;5.066;2022-10-31T06:35:53;101857.94;;;10.96;100.00
65760;BME280;52496;51.082;5.066;2022-10-31T06:38:28;101866.63;;;10.98;100.00
65760;BME280;52496;51.082;5.066;2022-10-31T06:41:02;101865.78;;;10.97;100.00
65760;BME280;52496;51.082;5.066;2022-10-31T06:43:34;101867.78;;;10.95;100.00
65760;BME280;52496;51.082;5.066;2022-10-31T06:46:05;101865.44;;;10.92;100.00
65760;BME280;52496;51.082;5.066;2022-10-31T06:48:36;101860.41;;;10.89;100.00
65760;BME280;52496;51.082;5.066;2022-10-31T06:51:07;101857.06;;;10.87;100.00
65760;BME280;52496;51.082;5.066;2022-10-31T06:53:37;101856.56;;;10.84;100.00
65760;BME280;52496;51.082;5.066;2022-10-31T06:56:08;101854.03;;;10.82;100.00
65760;BME280;52496;51.082;5.066;2022-10-31T06:58:38;101864.72;;;10.82;100.00
65760;BME280;52496;51.082;5.066;2022-10-31T07:01:09;101863.06;;;10.81;100.00
65760;BME280;52496;51.082;5.066;2022-10-31T07:03:39;101862.06;;;10.82;100.00
65760;BME280;52496;51.082;5.066;2022-10-31T07:06:10;101871.75;;;10.83;100.00
65760;BME280;52496;51.082;5.066;2022-10-31T07:08:41;101862.75;;;10.84;100.00
65760;BME280;52496;51.082;5.066;2022-10-31T07:11:11;101869.63;;;10.87;100.00
65760;BME280;52496;51.082;5.066;2022-10-31T07:13:42;101866.94;;;10.87;100.00
65760;BME280;52496;51.082;5.066;2022-10-31T07:16:12;101870.59;;;10.86;100.00
65760;BME280;52496;51.082;5.066;2022-10-31T07:18:44;101870.59;;;10.86;100.00
65760;BME280;52496;51.082;5.066;2022-10-31T07:21:14;101874.97;;;10.87;100.00
65760;BME280;52496;51.082;5.066;2022-10-31T07:23:47;101870.44;;;10.87;100.00
65760;BME280;52496;51.082;5.066;2022-10-31T07:26:18;101880.84;;;10.90;100.00
65760;BME280;52496;51.082;5.066;2022-10-31T07:28:49;101877.84;;;10.93;100.00
65760;BME280;52496;51.082;5.066;2022-10-31T07:31:19;101877.19;;;10.99;100.00
65760;BME280;52496;51.082;5.066;2022-10-31T07:33:51;101878.06;;;11.08;100.00
65760;BME280;52496;51.082;5.066;2022-10-31T07:36:22;101875.22;;;11.18;100.00
65760;BME280;52496;51.082;5.066;2022-10-31T07:38:52;101858.19;;;11.27;100.00
65760;BME280;52496;51.082;5.066;2022-10-31T07:41:22;101859.56;;;11.39;100.00
65760;BME280;52496;51.082;5.066;2022-10-31T07:43:53;101863.41;;;11.53;100.00
65760;BME280;52496;51.082;5.066;2022-10-31T07:46:23;101876.47;;;11.64;100.00
65760;BME280;52496;51.082;5.066;2022-10-31T07:48:54;101869.28;;;11.73;100.00
65760;BME280;52496;51.082;5.066;2022-10-31T07:51:24;101870.28;;;11.80;100.00
65760;BME280;52496;51.082;5.066;2022-10-31T07:53:55;101876.72;;;11.87;100.00
65760;BME280;52496;51.082;5.066;2022-10-31T07:56:25;101861.63;;;11.94;100.00
65760;BME280;52496;51.082;5.066;2022-10-31T07:58:56;101848.56;;;12.00;100.00
65760;BME280;52496;51.082;5.066;2022-10-31T08:01:26;101828.09;;;12.07;100.00
65760;BME280;52496;51.082;5.066;2022-10-31T08:03:56;101843.50;;;12.13;100.00
65760;BME280;52496;51.082;5.066;2022-10-31T08:06:27;101849.84;;;12.20;100.00
65760;BME280;52496;51.082;5.066;2022-10-31T08:08:57;101848.34;;;12.26;100.00
65760;BME280;52496;51.082;5.066;2022-10-31T08:11:28;101863.75;;;12.32;100.00
65760;BME280;52496;51.082;5.066;2022-10-31T08:13:58;101871.94;;;12.38;100.00
65760;BME280;52496;51.082;5.066;2022-10-31T08:16:29;101875.78;;;12.44;100.00
65760;BME280;52496;51.082;5.066;2022-10-31T08:18:59;101850.13;;;12.50;100.00
65760;BME280;52496;51.082;5.066;2022-10-31T08:21:30;101824.63;;;12.54;100.00
65760;BME280;52496;51.082;5.066;2022-10-31T08:24:01;101816.03;;;12.58;100.00
65760;BME280;52496;51.082;5.066;2022-10-31T08:26:31;101849.06;;;12.67;100.00
65760;BME280;52496;51.082;5.066;2022-10-31T08:29:03;101843.13;;;12.80;100.00
65760;BME280;52496;51.082;5.066;2022-10-31T08:31:35;101843.94;;;12.89;100.00
65760;BME280;52496;51.082;5.066;2022-10-31T08:34:05;101845.03;;;13.02;100.00
65760;BME280;52496;51.082;5.066;2022-10-31T08:36:36;101860.59;;;13.15;100.00
65760;BME280;52496;51.082;5.066;2022-10-31T08:39:06;101862.88;;;13.26;100.00
65760;BME280;52496;51.082;5.066;2022-10-31T08:41:37;101824.56;;;13.32;100.00
65760;BME280;52496;51.082;5.066;2022-10-31T08:44:07;101826.38;;;13.40;100.00
65760;BME280;52496;51.082;5.066;2022-10-31T08:46:37;101830.00;;;13.47;100.00
65760;BME280;52496;51.082;5.066;2022-10-31T08:49:08;101830.78;;;13.56;100.00
65760;BME280;52496;51.082;5.066;2022-10-31T08:51:39;101812.19;;;13.69;100.00
65760;BME280;52496;51.082;5.066;2022-10-31T08:54:09;101798.31;;;13.81;100.00
65760;BME280;52496;51.082;5.066;2022-10-31T08:56:40;101776.06;;;13.87;100.00
65760;BME280;52496;51.082;5.066;2022-10-31T08:59:10;101769.97;;;13.93;100.00
65760;BME280;52496;51.082;5.066;2022-10-31T09:01:41;101774.44;;;14.00;100.00
65760;BME280;52496;51.082;5.066;2022-10-31T09:04:11;101776.56;;;14.05;100.00
65760;BME280;52496;51.082;5.066;2022-10-31T09:06:42;101783.06;;;14.11;100.00
65760;BME280;52496;51.082;5.066;2022-10-31T09:09:13;101794.56;;;14.19;100.00
65760;BME280;52496;51.082;5.066;2022-10-31T09:11:43;101800.03;;;14.26;100.00
65760;BME280;52496;51.082;5.066;2022-10-31T09:14:14;101773.88;;;14.35;100.00
65760;BME280;52496;51.082;5.066;2022-10-31T09:16:44;101776.47;;;14.43;100.00
65760;BME280;52496;51.082;5.066;2022-10-31T09:19:15;101790.97;;;14.57;100.00
65760;BME280;52496;51.082;5.066;2022-10-31T09:21:46;101775.00;;;14.70;100.00
65760;BME280;52496;51.082;5.066;2022-10-31T09:24:16;101766.66;;;14.86;100.00
65760;BME280;52496;51.082;5.066;2022-10-31T09:26:47;101762.78;;;15.10;100.00
65760;BME280;52496;51.082;5.066;2022-10-31T09:29:17;101757.00;;;15.35;100.00
65760;BME280;52496;51.082;5.066;2022-10-31T09:31:48;101755.13;;;15.57;100.00
65760;BME280;52496;51.082;5.066;2022-10-31T09:34:18;101754.28;;;15.78;100.00
65760;BME280;52496;51.082;5.066;2022-10-31T09:36:49;101746.09;;;15.99;100.00
65760;BME280;52496;51.082;5.066;2022-10-31T09:39:20;101740.22;;;16.24;100.00
65760;BME280;52496;51.082;5.066;2022-10-31T09:42:02;101745.31;;;16.47;100.00
65760;BME280;52496;51.082;5.066;2022-10-31T09:50:22;101736.34;;;16.94;100.00
65760;BME280;52496;51.082;5.066;2022-10-31T09:53:04;101734.72;;;17.07;100.00
65760;BME280;52496;51.082;5.066;2022-10-31T09:55:39;101742.63;;;17.15;100.00
65760;BME280;52496;51.082;5.066;2022-10-31T09:58:30;101758.03;;;17.21;100.00
65760;BME280;52496;51.082;5.066;2022-10-31T10:01:02;101743.03;;;17.25;100.00
65760;BME280;52496;51.082;5.066;2022-10-31T10:03:39;101739.31;;;17.26;100.00
65760;BME280;52496;51.082;5.066;2022-10-31T10:06:16;101737.63;;;17.25;100.00
65760;BME280;52496;51.082;5.066;2022-10-31T10:08:48;101730.16;;;17.20;100.00
65760;BME280;52496;51.082;5.066;2022-10-31T10:25:45;101731.81;;;17.15;100.00
65760;BME280;52496;51.082;5.066;2022-10-31T10:28:21;101736.81;;;17.18;100.00
65760;BME280;52496;51.082;5.066;2022-10-31T10:30:58;101735.97;;;17.24;100.00
65760;BME280;52496;51.082;5.066;2022-10-31T10:33:37;101737.44;;;17.33;100.00
65760;BME280;52496;51.082;5.066;2022-10-31T10:36:21;101737.66;;;17.38;100.00
65760;BME280;52496;51.082;5.066;2022-10-31T10:39:05;101725.78;;;17.39;100.00
65760;BME280;52496;51.082;5.066;2022-10-31T10:41:43;101712.28;;;17.39;100.00
65760;BME280;52496;51.082;5.066;2022-10-31T10:44:15;101708.09;;;17.37;100.00
65760;BME280;52496;51.082;5.066;2022-10-31T10:46:51;101704.38;;;17.38;100.00
65760;BME280;52496;51.082;5.066;2022-10-31T10:52:25;101691.06;;;17.36;100.00
65760;BME280;52496;51.082;5.066;2022-10-31T10:58:01;101674.81;;;17.63;100.00
65760;BME280;52496;51.082;5.066;2022-10-31T11:00:37;101677.31;;;17.78;100.00
65760;BME280;52496;51.082;5.066;2022-10-31T11:03:09;101681.47;;;17.87;100.00
65760;BME280;52496;51.082;5.066;2022-10-31T11:05:53;101671.84;;;17.98;100.00
65760;BME280;52496;51.082;5.066;2022-10-31T11:08:26;101666.81;;;18.08;100.00
65760;BME280;52496;51.082;5.066;2022-10-31T11:11:28;101662.63;;;18.12;99.65
65760;BME280;52496;51.082;5.066;2022-10-31T11:14:19;101652.59;;;18.19;100.00
65760;BME280;52496;51.082;5.066;2022-10-31T11:16:55;101651.56;;;18.20;99.40
65760;BME280;52496;51.082;5.066;2022-10-31T11:19:36;101637.59;;;18.23;98.50
65760;BME280;52496;51.082;5.066;2022-10-31T11:22:14;101623.00;;;18.24;98.27
65760;BME280;52496;51.082;5.066;2022-10-31T11:24:46;101615.66;;;18.31;99.47
65760;BME280;52496;51.082;5.066;2022-10-31T11:27:21;101617.50;;;18.38;98.47
65760;BME280;52496;51.082;5.066;2022-10-31T11:29:52;101603.31;;;18.42;97.35
65760;BME280;52496;51.082;5.066;2022-10-31T11:32:34;101593.88;;;18.51;95.74
65760;BME280;52496;51.082;5.066;2022-10-31T11:35:11;101590.25;;;18.64;94.10
65760;BME280;52496;51.082;5.066;2022-10-31T11:37:48;101583.53;;;18.73;95.67
65760;BME280;52496;51.082;5.066;2022-10-31T11:40:23;101576.81;;;18.83;93.03
65760;BME280;52496;51.082;5.066;2022-10-31T11:42:57;101568.22;;;18.86;92.86
65760;BME280;52496;51.082;5.066;2022-10-31T11:45:32;101562.97;;;18.91;93.93
65760;BME280;52496;51.082;5.066;2022-10-31T11:48:16;101555.59;;;18.98;93.77
65760;BME280;52496;51.082;5.066;2022-10-31T11:50:50;101555.31;;;19.06;94.77
65760;BME280;52496;51.082;5.066;2022-10-31T11:53:29;101544.78;;;19.16;93.89
65760;BME280;52496;51.082;5.066;2022-10-31T11:56:14;101547.22;;;19.24;91.04
65760;BME280;52496;51.082;5.066;2022-10-31T11:58:56;101537.81;;;19.27;87.80
65760;BME280;52496;51.082;5.066;2022-10-31T12:01:29;101541.25;;;19.34;89.94
65760;BME280;52496;51.082;5.066;2022-10-31T12:06:37;101522.06;;;19.73;87.54
65760;BME280;52496;51.082;5.066;2022-10-31T12:09:19;101514.16;;;20.01;87.50
65760;BME280;52496;51.082;5.066;2022-10-31T12:12:00;101510.78;;;20.29;85.33
65760;BME280;52496;51.082;5.066;2022-10-31T12:20:44;101476.84;;;20.97;78.40
65760;BME280;52496;51.082;5.066;2022-10-31T12:23:29;101471.84;;;21.18;78.71
65760;BME280;52496;51.082;5.066;2022-10-31T12:29:22;101465.06;;;21.32;77.26
65760;BME280;52496;51.082;5.066;2022-10-31T12:32:27;101462.69;;;21.47;78.90
65760;BME280;52496;51.082;5.066;2022-10-31T12:38:11;101445.72;;;21.57;75.04
65760;BME280;52496;51.082;5.066;2022-10-31T12:45:56;101422.53;;;21.83;75.71
65760;BME280;52496;51.082;5.066;2022-10-31T12:53:44;101395.22;;;22.12;73.04
65760;BME280;52496;51.082;5.066;2022-10-31T12:59:08;101389.41;;;22.20;72.82
65760;BME280;52496;51.082;5.066;2022-10-31T13:02:12;101381.94;;;22.15;71.43
65760;BME280;52496;51.082;5.066;2022-10-31T13:04:53;101374.88;;;21.97;68.92
65760;BME280;52496;51.082;5.066;2022-10-31T13:07:36;101369.91;;;21.94;70.09
65760;BME280;52496;51.082;5.066;2022-10-31T13:10:15;101360.50;;;22.02;68.41
65760;BME280;52496;51.082;5.066;2022-10-31T13:12:49;101352.00;;;21.98;68.77
65760;BME280;52496;51.082;5.066;2022-10-31T13:15:24;101345.81;;;21.86;68.18
65760;BME280;52496;51.082;5.066;2022-10-31T13:17:58;101334.06;;;21.69;69.89
65760;BME280;52496;51.082;5.066;2022-10-31T13:20:33;101327.66;;;21.58;70.10
65760;BME280;52496;51.082;5.066;2022-10-31T13:25:55;101310.97;;;21.71;68.80
65760;BME280;52496;51.082;5.066;2022-10-31T13:28:37;101319.97;;;21.72;70.20
65760;BME280;52496;51.082;5.066;2022-10-31T13:31:10;101315.44;;;21.61;68.31
65760;BME280;52496;51.082;5.066;2022-10-31T13:33:57;101317.38;;;21.48;69.25
65760;BME280;52496;51.082;5.066;2022-10-31T13:36:55;101320.41;;;21.35;70.95
65760;BME280;52496;51.082;5.066;2022-10-31T13:42:31;101311.03;;;21.14;71.99
65760;BME280;52496;51.082;5.066;2022-10-31T13:45:16;101307.59;;;21.19;73.19
65760;BME280;52496;51.082;5.066;2022-10-31T13:47:57;101307.88;;;21.05;72.83
65760;BME280;52496;51.082;5.066;2022-10-31T13:50:31;101307.53;;;21.02;73.02
65760;BME280;52496;51.082;5.066;2022-10-31T13:53:20;101312.16;;;21.01;72.74
65760;BME280;52496;51.082;5.066;2022-10-31T13:56:14;101294.81;;;20.91;73.02
65760;BME280;52496;51.082;5.066;2022-10-31T14:04:23;101268.13;;;20.88;74.27
65760;BME280;52496;51.082;5.066;2022-10-31T14:07:13;101264.56;;;20.87;74.55
65760;BME280;52496;51.082;5.066;2022-10-31T14:12:33;101253.88;;;20.69;75.25
65760;BME280;52496;51.082;5.066;2022-10-31T14:17:45;101241.88;;;20.41;77.12
65760;BME280;52496;51.082;5.066;2022-10-31T14:22:53;101225.78;;;20.11;79.17
65760;BME280;52496;51.082;5.066;2022-10-31T14:25:50;101213.06;;;20.00;79.93
65760;BME280;52496;51.082;5.066;2022-10-31T14:28:31;101202.44;;;19.86;80.41
65760;BME280;52496;51.082;5.066;2022-10-31T14:31:02;101199.72;;;19.75;81.57
65760;BME280;52496;51.082;5.066;2022-10-31T14:33:33;101197.38;;;19.66;81.85
65760;BME280;52496;51.082;5.066;2022-10-31T14:36:17;101198.31;;;19.60;82.52
65760;BME280;52496;51.082;5.066;2022-10-31T14:39:11;101190.25;;;19.54;83.14
65760;BME280;52496;51.082;5.066;2022-10-31T14:43:00;101181.28;;;19.41;83.64
65760;BME280;52496;51.082;5.066;2022-10-31T14:48:17;101169.16;;;19.20;85.51
65760;BME280;52496;51.082;5.066;2022-10-31T14:50:54;101162.41;;;19.11;86.29
65760;BME280;52496;51.082;5.066;2022-10-31T14:53:33;101155.22;;;19.05;87.32
65760;BME280;52496;51.082;5.066;2022-10-31T14:56:09;101149.66;;;19.00;88.12
65760;BME280;52496;51.082;5.066;2022-10-31T14:58:45;101153.50;;;18.92;88.24
65760;BME280;52496;51.082;5.066;2022-10-31T15:01:24;101148.22;;;18.86;88.47
65760;BME280;52496;51.082;5.066;2022-10-31T15:06:51;101143.81;;;18.73;89.49
65760;BME280;52496;51.082;5.066;2022-10-31T15:09:26;101142.81;;;18.67;90.11
65760;BME280;52496;51.082;5.066;2022-10-31T15:12:01;101135.63;;;18.61;90.52
65760;BME280;52496;51.082;5.066;2022-10-31T15:14:44;101140.88;;;18.56;90.95